sensor_id;sensor_type;location;lat;lon;timestamp;pressure;altitude;pressure_sealevel;temperature
34807;BMP180;18310;55.586;12.286;2023-02-28T00:02:05;103119.00;;;11.20
34807;BMP180;18310;55.586;12.286;2023-02-28T00:05:13;103119.00;;;11.10
34807;BMP180;18310;55.586;12.286;2023-02-28T00:08:19;103114.00;;;11.00
34807;BMP180;18310;55.586;12.286;2023-02-28T00:11:23;103118.00;;;11.00
34807;BMP180;18310;55.586;12.286;2023-02-28T00:14:30;103108.00;;;10.90
34807;BMP180;18310;55.586;12.286;2023-02-28T00:17:34;103123.00;;;10.90
34807;BMP180;18310;55.586;12.286;2023-02-28T00:20:39;103111.00;;;10.80
34807;BMP180;18310;55.586;12.286;2023-02-28T00:23:43;103107.00;;;10.70
34807;BMP180;18310;55.586;12.286;2023-02-28T00:26:47;103119.00;;;10.70
34807;BMP180;18310;55.586;12.286;2023-02-28T00:29:51;103115.00;;;10.60
34807;BMP180;18310;55.586;12.286;2023-02-28T00:32:56;103105.00;;;10.60
34807;BMP180;18310;55.586;12.286;2023-02-28T00:36:10;103116.00;;;10.60
34807;BMP180;18310;55.586;12.286;2023-02-28T00:39:15;103117.00;;;10.60
34807;BMP180;18310;55.586;12.286;2023-02-28T00:42:19;103108.00;;;10.50
34807;BMP180;18310;55.586;12.286;2023-02-28T00:45:22;103108.00;;;10.60
34807;BMP180;18310;55.586;12.286;2023-02-28T00:48:26;103109.00;;;10.40
34807;BMP180;18310;55.586;12.286;2023-02-28T00:51:32;103110.00;;;10.40
34807;BMP180;18310;55.586;12.286;2023-02-28T00:54:36;103113.00;;;10.30
34807;BMP180;18310;55.586;12.286;2023-02-28T00:57:40;103111.00;;;10.30
34807;BMP180;18310;55.586;12.286;2023-02-28T01:00:44;103116.00;;;10.30
34807;BMP180;18310;55.586;12.286;2023-02-28T01:03:51;103125.00;;;10.30
34807;BMP180;18310;55.586;12.286;2023-02-28T01:06:56;103130.00;;;10.30
34807;BMP180;18310;55.586;12.286;2023-02-28T01:10:01;103133.00;;;10.30
34807;BMP180;18310;55.586;12.286;2023-02-28T01:13:05;103130.00;;;10.30
34807;BMP180;18310;55.586;12.286;2023-02-28T01:16:08;103120.00;;;10.40
34807;BMP180;18310;55.586;12.286;2023-02-28T01:19:12;103120.00;;;10.40
34807;BMP180;18310;55.586;12.286;2023-02-28T01:22:18;103120.00;;;10.40
34807;BMP180;18310;55.586;12.286;2023-02-28T01:25:22;103111.00;;;10.30
34807;BMP180;18310;55.586;12.286;2023-02-28T01:28:26;103117.00;;;10.30
34807;BMP180;18310;55.586;12.286;2023-02-28T01:31:32;103118.00;;;10.30
34807;BMP180;18310;55.586;12.286;2023-02-28T01:34:37;103114.00;;;10.30
34807;BMP180;18310;55.586;12.286;2023-02-28T01:37:43;103127.00;;;10.30
34807;BMP180;18310;55.586;12.286;2023-02-28T01:40:47;103122.00;;;10.30
34807;BMP180;18310;55.586;12.286;2023-02-28T01:43:56;103121.00;;;10.40
34807;BMP180;18310;55.586;12.286;2023-02-28T01:47:00;103120.00;;;10.30
34807;BMP180;18310;55.586;12.286;2023-02-28T01:50:12;103118.00;;;10.40
34807;BMP180;18310;55.586;12.286;2023-02-28T01:53:31;103122.00;;;10.40
34807;BMP180;18310;55.586;12.286;2023-02-28T01:56:51;103123.00;;;10.50
34807;BMP180;18310;55.586;12.286;2023-02-28T02:00:00;103125.00;;;10.60
34807;BMP180;18310;55.586;12.286;2023-02-28T02:03:08;103127.00;;;10.60
34807;BMP180;18310;55.586;12.286;2023-02-28T02:06:14;103128.00;;;10.60
34807;BMP180;18310;55.586;12.286;2023-02-28T02:09:27;103124.00;;;10.80
34807;BMP180;18310;55.586;12.286;2023-02-28T02:13:16;103124.00;;;10.80
34807;BMP180;18310;55.586;12.286;2023-02-28T02:16:34;103126.00;;;10.80
34807;BMP180;18310;55.586;12.286;2023-02-28T02:20:27;103128.00;;;10.80
34807;BMP180;18310;55.586;12.286;2023-02-28T02:24:31;103125.00;;;10.70
34807;BMP180;18310;55.586;12.286;2023-02-28T02:28:31;103113.00;;;10.60
34807;BMP180;18310;55.586;12.286;2023-02-28T02:32:24;103111.00;;;10.60
34807;BMP180;18310;55.586;12.286;2023-02-28T02:35:43;103116.00;;;10.50
34807;BMP180;18310;55.586;12.286;2023-02-28T02:38:56;103106.00;;;10.40
34807;BMP180;18310;55.586;12.286;2023-02-28T02:42:14;103099.00;;;10.40
34807;BMP180;18310;55.586;12.286;2023-02-28T02:45:25;103100.00;;;10.40
34807;BMP180;18310;55.586;12.286;2023-02-28T02:48:34;103092.00;;;10.30
34807;BMP180;18310;55.586;12.286;2023-02-28T02:51:41;103088.00;;;10.30
34807;BMP180;18310;55.586;12.286;2023-02-28T02:54:48;103089.00;;;10.30
34807;BMP180;18310;55.586;12.286;2023-02-28T02:57:58;103082.00;;;10.20
34807;BMP180;18310;55.586;12.286;2023-02-28T03:01:04;103086.00;;;10.20
34807;BMP180;18310;55.586;12.286;2023-02-28T03:04:20;103080.00;;;10.20
34807;BMP180;18310;55.586;12.286;2023-02-28T03:07:27;103077.00;;;10.10
34807;BMP180;18310;55.586;12.286;2023-02-28T03:10:40;103079.00;;;10.10
34807;BMP180;18310;55.586;12.286;2023-02-28T03:14:42;103079.00;;;10.10
34807;BMP180;18310;55.586;12.286;2023-02-28T03:18:05;103076.00;;;10.00
34807;BMP180;18310;55.586;12.286;2023-02-28T03:21:20;103067.00;;;10.00
34807;BMP180;18310;55.586;12.286;2023-02-28T03:24:43;103079.00;;;9.90
34807;BMP180;18310;55.586;12.286;2023-02-28T03:28:00;103073.00;;;9.90
34807;BMP180;18310;55.586;12.286;2023-02-28T03:31:15;103080.00;;;9.80
34807;BMP180;18310;55.586;12.286;2023-02-28T03:34:29;103075.00;;;9.80
34807;BMP180;18310;55.586;12.286;2023-02-28T03:37:38;103074.00;;;9.70
34807;BMP180;18310;55.586;12.286;2023-02-28T03:40:51;103073.00;;;9.70
34807;BMP180;18310;55.586;12.286;2023-02-28T03:44:02;103075.00;;;9.70
34807;BMP180;18310;55.586;12.286;2023-02-28T03:47:11;103076.00;;;9.60
34807;BMP180;18310;55.586;12.286;2023-02-28T03:50:22;103071.00;;;9.50
34807;BMP180;18310;55.586;12.286;2023-02-28T03:53:32;103070.00;;;9.50
34807;BMP180;18310;55.586;12.286;2023-02-28T03:56:43;103074.00;;;9.40
34807;BMP180;18310;55.586;12.286;2023-02-28T03:59:55;103070.00;;;9.40
34807;BMP180;18310;55.586;12.286;2023-02-28T04:02:59;103068.00;;;9.30
34807;BMP180;18310;55.586;12.286;2023-02-28T04:06:07;103075.00;;;9.20
34807;BMP180;18310;55.586;12.286;2023-02-28T04:09:14;103072.00;;;9.20
34807;BMP180;18310;55.586;12.286;2023-02-28T04:12:19;103077.00;;;9.10
34807;BMP180;18310;55.586;12.286;2023-02-28T04:15:26;103078.00;;;9.10
34807;BMP180;18310;55.586;12.286;2023-02-28T04:18:30;103063.00;;;9.10
34807;BMP180;18310;55.586;12.286;2023-02-28T04:21:37;103073.00;;;9.10
34807;BMP180;18310;55.586;12.286;2023-02-28T04:24:43;103064.00;;;9.10
34807;BMP180;18310;55.586;12.286;2023-02-28T04:27:48;103067.00;;;9.10
34807;BMP180;18310;55.586;12.286;2023-02-28T04:30:55;103057.00;;;9.10
34807;BMP180;18310;55.586;12.286;2023-02-28T04:34:00;103076.00;;;9.10
34807;BMP180;18310;55.586;12.286;2023-02-28T04:37:09;103073.00;;;9.10
34807;BMP180;18310;55.586;12.286;2023-02-28T04:40:16;103065.00;;;9.00
34807;BMP180;18310;55.586;12.286;2023-02-28T04:43:23;103074.00;;;9.00
34807;BMP180;18310;55.586;12.286;2023-02-28T04:46:26;103071.00;;;9.00
34807;BMP180;18310;55.586;12.286;2023-02-28T04:49:30;103076.00;;;9.00
34807;BMP180;18310;55.586;12.286;2023-02-28T04:52:34;103082.00;;;8.90
34807;BMP180;18310;55.586;12.286;2023-02-28T04:55:38;103088.00;;;8.90
34807;BMP180;18310;55.586;12.286;2023-02-28T04:58:45;103088.00;;;8.90
34807;BMP180;18310;55.586;12.286;2023-02-28T05:01:49;103092.00;;;8.90
34807;BMP180;18310;55.586;12.286;2023-02-28T05:04:55;103087.00;;;8.80
34807;BMP180;18310;55.586;12.286;2023-02-28T05:07:58;103086.00;;;8.80
34807;BMP180;18310;55.586;12.286;2023-02-28T05:11:03;103089.00;;;8.80
34807;BMP180;18310;55.586;12.286;2023-02-28T05:14:12;103092.00;;;8.80
34807;BMP180;18310;55.586;12.286;2023-02-28T05:17:16;103092.00;;;8.70
34807;BMP180;18310;55.586;12.286;2023-02-28T05:20:20;103099.00;;;8.70
34807;BMP180;18310;55.586;12.286;2023-02-28T05:23:24;103098.00;;;8.80
34807;BMP180;18310;55.586;12.286;2023-02-28T05:26:28;103100.00;;;8.80
34807;BMP180;18310;55.586;12.286;2023-02-28T05:29:34;103084.00;;;8.80
34807;BMP180;18310;55.586;12.286;2023-02-28T05:32:51;103084.00;;;8.90
34807;BMP180;18310;55.586;12.286;2023-02-28T05:35:55;103088.00;;;8.90
34807;BMP180;18310;55.586;12.286;2023-02-28T05:39:01;103101.00;;;9.00
34807;BMP180;18310;55.586;12.286;2023-02-28T05:42:05;103104.00;;;9.00
34807;BMP180;18310;55.586;12.286;2023-02-28T05:45:11;103093.00;;;8.90
34807;BMP180;18310;55.586;12.286;2023-02-28T05:48:17;103098.00;;;8.90
34807;BMP180;18310;55.586;12.286;2023-02-28T05:51:20;103099.00;;;8.90
34807;BMP180;18310;55.586;12.286;2023-02-28T05:54:25;103100.00;;;8.90
34807;BMP180;18310;55.586;12.286;2023-02-28T05:57:28;103095.00;;;9.00
34807;BMP180;18310;55.586;12.286;2023-02-28T06:00:34;103097.00;;;9.00
34807;BMP180;18310;55.586;12.286;2023-02-28T06:03:39;103098.00;;;8.90
34807;BMP180;18310;55.586;12.286;2023-02-28T06:06:43;103096.00;;;8.90
34807;BMP180;18310;55.586;12.286;2023-02-28T06:09:46;103090.00;;;8.90
34807;BMP180;18310;55.586;12.286;2023-02-28T06:12:50;103084.00;;;8.90
34807;BMP180;18310;55.586;12.286;2023-02-28T06:16:00;103079.00;;;8.90
34807;BMP180;18310;55.586;12.286;2023-02-28T06:19:04;103079.00;;;8.90
34807;BMP180;18310;55.586;12.286;2023-02-28T06:22:09;103081.00;;;8.90
34807;BMP180;18310;55.586;12.286;2023-02-28T06:25:13;103082.00;;;8.90
34807;BMP180;18310;55.586;12.286;2023-02-28T06:28:17;103081.00;;;8.90
34807;BMP180;18310;55.586;12.286;2023-02-28T06:31:23;103097.00;;;8.90
34807;BMP180;18310;55.586;12.286;2023-02-28T06:34:28;103106.00;;;9.00
34807;BMP180;18310;55.586;12.286;2023-02-28T06:37:32;103108.00;;;9.10
34807;BMP180;18310;55.586;12.286;2023-02-28T06:40:36;103107.00;;;9.10
34807;BMP180;18310;55.586;12.286;2023-02-28T06:43:42;103103.00;;;9.10
34807;BMP180;18310;55.586;12.286;2023-02-28T06:46:48;103113.00;;;9.20
34807;BMP180;18310;55.586;12.286;2023-02-28T06:49:52;103115.00;;;9.20
34807;BMP180;18310;55.586;12.286;2023-02-28T06:53:01;103110.00;;;9.20
34807;BMP180;18310;55.586;12.286;2023-02-28T06:56:10;103123.00;;;9.30
34807;BMP180;18310;55.586;12.286;2023-02-28T06:59:14;103114.00;;;9.30
34807;BMP180;18310;55.586;12.286;2023-02-28T07:02:19;103116.00;;;9.40
34807;BMP180;18310;55.586;12.286;2023-02-28T07:05:23;103120.00;;;9.40
34807;BMP180;18310;55.586;12.286;2023-02-28T07:08:28;103123.00;;;9.50
34807;BMP180;18310;55.586;12.286;2023-02-28T07:11:34;103119.00;;;9.60
34807;BMP180;18310;55.586;12.286;2023-02-28T07:14:38;103126.00;;;9.70
34807;BMP180;18310;55.586;12.286;2023-02-28T07:17:43;103125.00;;;9.80
34807;BMP180;18310;55.586;12.286;2023-02-28T07:20:47;103128.00;;;9.90
34807;BMP180;18310;55.586;12.286;2023-02-28T07:23:51;103117.00;;;10.00
34807;BMP180;18310;55.586;12.286;2023-02-28T07:26:55;103120.00;;;10.20
34807;BMP180;18310;55.586;12.286;2023-02-28T07:29:59;103122.00;;;10.30
34807;BMP180;18310;55.586;12.286;2023-02-28T07:33:05;103117.00;;;10.50
34807;BMP180;18310;55.586;12.286;2023-02-28T07:36:11;103119.00;;;10.60
34807;BMP180;18310;55.586;12.286;2023-02-28T07:39:18;103125.00;;;10.80
34807;BMP180;18310;55.586;12.286;2023-02-28T07:42:21;103131.00;;;10.90
34807;BMP180;18310;55.586;12.286;2023-02-28T07:45:25;103126.00;;;11.10
34807;BMP180;18310;55.586;12.286;2023-02-28T07:48:30;103124.00;;;11.20
34807;BMP180;18310;55.586;12.286;2023-02-28T07:51:34;103131.00;;;11.40
34807;BMP180;18310;55.586;12.286;2023-02-28T07:54:38;103135.00;;;11.50
34807;BMP180;18310;55.586;12.286;2023-02-28T07:57:42;103135.00;;;11.70
34807;BMP180;18310;55.586;12.286;2023-02-28T08:00:47;103134.00;;;11.80
34807;BMP180;18310;55.586;12.286;2023-02-28T08:03:52;103138.00;;;12.00
34807;BMP180;18310;55.586;12.286;2023-02-28T08:06:57;103145.00;;;12.20
34807;BMP180;18310;55.586;12.286;2023-02-28T08:10:01;103141.00;;;12.40
34807;BMP180;18310;55.586;12.286;2023-02-28T08:13:08;103146.00;;;12.50
34807;BMP180;18310;55.586;12.286;2023-02-28T08:16:13;103151.00;;;12.70
34807;BMP180;18310;55.586;12.286;2023-02-28T08:19:25;103141.00;;;12.90
34807;BMP180;18310;55.586;12.286;2023-02-28T08:22:30;103133.00;;;13.10
34807;BMP180;18310;55.586;12.286;2023-02-28T08:25:34;103137.00;;;13.20
34807;BMP180;18310;55.586;12.286;2023-02-28T08:28:38;103146.00;;;13.40
34807;BMP180;18310;55.586;12.286;2023-02-28T08:31:42;103147.00;;;13.60
34807;BMP180;18310;55.586;12.286;2023-02-28T08:34:52;103154.00;;;13.70
34807;BMP180;18310;55.586;12.286;2023-02-28T08:37:56;103157.00;;;13.80
34807;BMP180;18310;55.586;12.286;2023-02-28T08:41:03;103152.00;;;13.80
34807;BMP180;18310;55.586;12.286;2023-02-28T08:44:08;103153.00;;;14.00
34807;BMP180;18310;55.586;12.286;2023-02-28T08:47:12;103142.00;;;14.10
34807;BMP180;18310;55.586;12.286;2023-02-28T08:50:18;103163.00;;;14.20
34807;BMP180;18310;55.586;12.286;2023-02-28T08:53:21;103155.00;;;14.30
34807;BMP180;18310;55.586;12.286;2023-02-28T08:56:25;103157.00;;;14.40
34807;BMP180;18310;55.586;12.286;2023-02-28T08:59:29;103166.00;;;14.60
34807;BMP180;18310;55.586;12.286;2023-02-28T09:02:33;103162.00;;;14.70
34807;BMP180;18310;55.586;12.286;2023-02-28T09:05:38;103168.00;;;14.90
34807;BMP180;18310;55.586;12.286;2023-02-28T09:08:42;103169.00;;;15.00
34807;BMP180;18310;55.586;12.286;2023-02-28T09:11:45;103170.00;;;15.20
34807;BMP180;18310;55.586;12.286;2023-02-28T09:14:49;103168.00;;;15.30
34807;BMP180;18310;55.586;12.286;2023-02-28T09:17:57;103169.00;;;15.50
34807;BMP180;18310;55.586;12.286;2023-02-28T09:21:05;103172.00;;;15.60
34807;BMP180;18310;55.586;12.286;2023-02-28T09:24:09;103168.00;;;15.70
34807;BMP180;18310;55.586;12.286;2023-02-28T09:27:19;103167.00;;;15.80
34807;BMP180;18310;55.586;12.286;2023-02-28T09:30:26;103173.00;;;15.90
34807;BMP180;18310;55.586;12.286;2023-02-28T09:33:30;103170.00;;;16.10
34807;BMP180;18310;55.586;12.286;2023-02-28T09:36:36;103177.00;;;16.20
34807;BMP180;18310;55.586;12.286;2023-02-28T09:39:47;103177.00;;;16.30
34807;BMP180;18310;55.586;12.286;2023-02-28T09:42:55;103176.00;;;16.40
34807;BMP180;18310;55.586;12.286;2023-02-28T09:46:08;103180.00;;;16.60
34807;BMP180;18310;55.586;12.286;2023-02-28T09:49:20;103190.00;;;16.70
34807;BMP180;18310;55.586;12.286;2023-02-28T09:52:31;103179.00;;;16.80
34807;BMP180;18310;55.586;12.286;2023-02-28T09:55:42;103188.00;;;16.80
34807;BMP180;18310;55.586;12.286;2023-02-28T09:58:53;103189.00;;;16.80
34807;BMP180;18310;55.586;12.286;2023-02-28T10:02:10;103183.00;;;16.90
34807;BMP180;18310;55.586;12.286;2023-02-28T10:05:19;103185.00;;;17.00
34807;BMP180;18310;55.586;12.286;2023-02-28T10:08:31;103188.00;;;17.00
34807;BMP180;18310;55.586;12.286;2023-02-28T10:11:37;103191.00;;;17.00
34807;BMP180;18310;55.586;12.286;2023-02-28T10:14:53;103184.00;;;17.00
34807;BMP180;18310;55.586;12.286;2023-02-28T10:18:18;103182.00;;;17.00
34807;BMP180;18310;55.586;12.286;2023-02-28T10:21:31;103186.00;;;17.10
34807;BMP180;18310;55.586;12.286;2023-02-28T10:24:43;103184.00;;;17.20
34807;BMP180;18310;55.586;12.286;2023-02-28T10:27:48;103180.00;;;17.30
34807;BMP180;18310;55.586;12.286;2023-02-28T10:30:54;103187.00;;;17.40
34807;BMP180;18310;55.586;12.286;2023-02-28T10:33:59;103190.00;;;17.50
34807;BMP180;18310;55.586;12.286;2023-02-28T10:37:15;103175.00;;;17.70
34807;BMP180;18310;55.586;12.286;2023-02-28T10:40:35;103179.00;;;17.70
34807;BMP180;18310;55.586;12.286;2023-02-28T10:43:41;103170.00;;;17.80
34807;BMP180;18310;55.586;12.286;2023-02-28T10:46:48;103169.00;;;17.80
34807;BMP180;18310;55.586;12.286;2023-02-28T10:49:52;103168.00;;;17.90
34807;BMP180;18310;55.586;12.286;2023-02-28T10:53:24;103171.00;;;18.10
34807;BMP180;18310;55.586;12.286;2023-02-28T10:56:32;103163.00;;;18.10
34807;BMP180;18310;55.586;12.286;2023-02-28T10:59:38;103165.00;;;18.10
34807;BMP180;18310;55.586;12.286;2023-02-28T11:02:42;103156.00;;;18.20
34807;BMP180;18310;55.586;12.286;2023-02-28T11:05:54;103161.00;;;18.20
34807;BMP180;18310;55.586;12.286;2023-02-28T11:09:01;103164.00;;;18.20
34807;BMP180;18310;55.586;12.286;2023-02-28T11:12:23;103155.00;;;18.30
34807;BMP180;18310;55.586;12.286;2023-02-28T11:15:31;103155.00;;;18.30
34807;BMP180;18310;55.586;12.286;2023-02-28T11:18:42;103152.00;;;18.40
34807;BMP180;18310;55.586;12.286;2023-02-28T11:21:54;103152.00;;;18.40
34807;BMP180;18310;55.586;12.286;2023-02-28T11:25:06;103146.00;;;18.40
34807;BMP180;18310;55.586;12.286;2023-02-28T11:28:28;103142.00;;;18.50
34807;BMP180;18310;55.586;12.286;2023-02-28T11:31:33;103138.00;;;18.50
34807;BMP180;18310;55.586;12.286;2023-02-28T11:34:40;103138.00;;;18.50
34807;BMP180;18310;55.586;12.286;2023-02-28T11:37:44;103136.00;;;18.50
34807;BMP180;18310;55.586;12.286;2023-02-28T11:41:05;103137.00;;;18.60
34807;BMP180;18310;55.586;12.286;2023-02-28T11:44:31;103136.00;;;18.60
34807;BMP180;18310;55.586;12.286;2023-02-28T11:47:45;103139.00;;;18.60
34807;BMP180;18310;55.586;12.286;2023-02-28T11:51:03;103133.00;;;18.70
34807;BMP180;18310;55.586;12.286;2023-02-28T11:54:32;103152.00;;;18.70
34807;BMP180;18310;55.586;12.286;2023-02-28T11:58:02;103135.00;;;18.70
34807;BMP180;18310;55.586;12.286;2023-02-28T12:01:28;103144.00;;;18.70
34807;BMP180;18310;55.586;12.286;2023-02-28T12:04:49;103135.00;;;18.70
34807;BMP180;18310;55.586;12.286;2023-02-28T12:08:16;103139.00;;;18.80
34807;BMP180;18310;55.586;12.286;2023-02-28T12:11:50;103134.00;;;18.80
34807;BMP180;18310;55.586;12.286;2023-02-28T12:19:26;103142.00;;;18.90
34807;BMP180;18310;55.586;12.286;2023-02-28T12:22:40;103132.00;;;18.90
34807;BMP180;18310;55.586;12.286;2023-02-28T12:26:00;103132.00;;;19.00
34807;BMP180;18310;55.586;12.286;2023-02-28T12:29:15;103126.00;;;19.00
34807;BMP180;18310;55.586;12.286;2023-02-28T12:32:30;103112.00;;;18.90
34807;BMP180;18310;55.586;12.286;2023-02-28T12:35:45;103114.00;;;18.80
34807;BMP180;18310;55.586;12.286;2023-02-28T12:38:56;103115.00;;;18.70
34807;BMP180;18310;55.586;12.286;2023-02-28T12:42:08;103104.00;;;18.60
34807;BMP180;18310;55.586;12.286;2023-02-28T12:45:20;103106.00;;;18.50
34807;BMP180;18310;55.586;12.286;2023-02-28T12:48:33;103108.00;;;18.30
34807;BMP180;18310;55.586;12.286;2023-02-28T12:51:43;103106.00;;;18.20
34807;BMP180;18310;55.586;12.286;2023-02-28T12:54:54;103113.00;;;18.20
34807;BMP180;18310;55.586;12.286;2023-02-28T12:58:13;103100.00;;;18.20
34807;BMP180;18310;55.586;12.286;2023-02-28T13:01:57;103092.00;;;18.30
34807;BMP180;18310;55.586;12.286;2023-02-28T13:05:44;103074.00;;;18.30
34807;BMP180;18310;55.586;12.286;2023-02-28T13:09:08;103070.00;;;18.30
34807;BMP180;18310;55.586;12.286;2023-02-28T13:12:22;103077.00;;;18.30
34807;BMP180;18310;55.586;12.286;2023-02-28T13:15:29;103073.00;;;18.30
34807;BMP180;18310;55.586;12.286;2023-02-28T13:18:45;103062.00;;;18.30
34807;BMP180;18310;55.586;12.286;2023-02-28T13:22:20;103054.00;;;18.30
34807;BMP180;18310;55.586;12.286;2023-02-28T13:25:53;103051.00;;;18.30
34807;BMP180;18310;55.586;12.286;2023-02-28T13:29:00;103054.00;;;18.30
34807;BMP180;18310;55.586;12.286;2023-02-28T13:32:42;103047.00;;;18.30
34807;BMP180;18310;55.586;12.286;2023-02-28T13:35:46;103055.00;;;18.30
34807;BMP180;18310;55.586;12.286;2023-02-28T13:38:53;103061.00;;;18.30
34807;BMP180;18310;55.586;12.286;2023-02-28T13:42:35;103053.00;;;18.30
34807;BMP180;18310;55.586;12.286;2023-02-28T13:46:12;103054.00;;;18.40
34807;BMP180;18310;55.586;12.286;2023-02-28T13:49:25;103048.00;;;18.30
34807;BMP180;18310;55.586;12.286;2023-02-28T13:52:34;103046.00;;;18.30
34807;BMP180;18310;55.586;12.286;2023-02-28T13:56:01;103046.00;;;18.30
34807;BMP180;18310;55.586;12.286;2023-02-28T13:59:20;103047.00;;;18.30
34807;BMP180;18310;55.586;12.286;2023-02-28T14:02:52;103047.00;;;18.30
34807;BMP180;18310;55.586;12.286;2023-02-28T14:06:25;103055.00;;;18.20
34807;BMP180;18310;55.586;12.286;2023-02-28T14:09:35;103047.00;;;18.20
34807;BMP180;18310;55.586;12.286;2023-02-28T14:12:59;103035.00;;;18.20
34807;BMP180;18310;55.586;12.286;2023-02-28T14:16:06;103037.00;;;18.10
34807;BMP180;18310;55.586;12.286;2023-02-28T14:19:19;103029.00;;;18.10
34807;BMP180;18310;55.586;12.286;2023-02-28T14:22:50;103036.00;;;18.10
34807;BMP180;18310;55.586;12.286;2023-02-28T14:26:07;103037.00;;;18.10
34807;BMP180;18310;55.586;12.286;2023-02-28T14:29:59;103032.00;;;18.10
34807;BMP180;18310;55.586;12.286;2023-02-28T14:33:23;103038.00;;;18.10
34807;BMP180;18310;55.586;12.286;2023-02-28T14:36:39;103034.00;;;18.10
34807;BMP180;18310;55.586;12.286;2023-02-28T14:39:44;103024.00;;;18.10
34807;BMP180;18310;55.586;12.286;2023-02-28T14:42:58;103039.00;;;18.10
34807;BMP180;18310;55.586;12.286;2023-02-28T14:46:06;103021.00;;;18.10
34807;BMP180;18310;55.586;12.286;2023-02-28T14:49:18;103016.00;;;18.10
34807;BMP180;18310;55.586;12.286;2023-02-28T14:52:26;103016.00;;;18.10
34807;BMP180;18310;55.586;12.286;2023-02-28T14:55:35;103009.00;;;18.10
34807;BMP180;18310;55.586;12.286;2023-02-28T14:58:39;103006.00;;;18.00
34807;BMP180;18310;55.586;12.286;2023-02-28T15:01:44;103011.00;;;18.00
34807;BMP180;18310;55.586;12.286;2023-02-28T15:04:59;103006.00;;;18.00
34807;BMP180;18310;55.586;12.286;2023-02-28T15:08:13;102998.00;;;18.00
34807;BMP180;18310;55.586;12.286;2023-02-28T15:11:20;103000.00;;;18.00
34807;BMP180;18310;55.586;12.286;2023-02-28T15:14:28;103007.00;;;17.90
34807;BMP180;18310;55.586;12.286;2023-02-28T15:17:34;103003.00;;;17.90
34807;BMP180;18310;55.586;12.286;2023-02-28T15:20:41;103006.00;;;17.90
34807;BMP180;18310;55.586;12.286;2023-02-28T15:23:52;103001.00;;;17.80
34807;BMP180;18310;55.586;12.286;2023-02-28T15:27:04;102995.00;;;17.80
34807;BMP180;18310;55.586;12.286;2023-02-28T15:30:21;102999.00;;;17.80
34807;BMP180;18310;55.586;12.286;2023-02-28T15:33:29;102986.00;;;17.70
34807;BMP180;18310;55.586;12.286;2023-02-28T15:36:37;102991.00;;;17.60
34807;BMP180;18310;55.586;12.286;2023-02-28T15:39:50;102990.00;;;17.60
34807;BMP180;18310;55.586;12.286;2023-02-28T15:43:06;102996.00;;;17.60
34807;BMP180;18310;55.586;12.286;2023-02-28T15:46:13;102985.00;;;17.50
34807;BMP180;18310;55.586;12.286;2023-02-28T15:49:21;102981.00;;;17.40
34807;BMP180;18310;55.586;12.286;2023-02-28T15:52:34;102987.00;;;17.40
34807;BMP180;18310;55.586;12.286;2023-02-28T15:55:45;103000.00;;;17.30
34807;BMP180;18310;55.586;12.286;2023-02-28T15:59:06;102993.00;;;17.20
34807;BMP180;18310;55.586;12.286;2023-02-28T16:02:19;102976.00;;;17.20
34807;BMP180;18310;55.586;12.286;2023-02-28T16:05:27;102987.00;;;17.10
34807;BMP180;18310;55.586;12.286;2023-02-28T16:08:34;102984.00;;;17.00
34807;BMP180;18310;55.586;12.286;2023-02-28T16:11:45;102992.00;;;16.90
34807;BMP180;18310;55.586;12.286;2023-02-28T16:14:54;102990.00;;;16.80
34807;BMP180;18310;55.586;12.286;2023-02-28T16:18:20;103001.00;;;16.80
34807;BMP180;18310;55.586;12.286;2023-02-28T16:21:37;102995.00;;;16.70
34807;BMP180;18310;55.586;12.286;2023-02-28T16:24:42;102999.00;;;16.60
34807;BMP180;18310;55.586;12.286;2023-02-28T16:27:51;103003.00;;;16.50
34807;BMP180;18310;55.586;12.286;2023-02-28T16:30:56;102997.00;;;16.40
34807;BMP180;18310;55.586;12.286;2023-02-28T16:34:10;103009.00;;;16.40
34807;BMP180;18310;55.586;12.286;2023-02-28T16:37:18;103005.00;;;16.30
34807;BMP180;18310;55.586;12.286;2023-02-28T16:40:25;103006.00;;;16.20
34807;BMP180;18310;55.586;12.286;2023-02-28T16:43:35;103010.00;;;16.10
34807;BMP180;18310;55.586;12.286;2023-02-28T16:46:40;103015.00;;;16.00
34807;BMP180;18310;55.586;12.286;2023-02-28T16:49:47;103027.00;;;15.90
34807;BMP180;18310;55.586;12.286;2023-02-28T16:52:51;103034.00;;;15.90
34807;BMP180;18310;55.586;12.286;2023-02-28T16:55:57;103030.00;;;15.80
34807;BMP180;18310;55.586;12.286;2023-02-28T16:59:11;103024.00;;;15.80
34807;BMP180;18310;55.586;12.286;2023-02-28T17:02:17;103040.00;;;15.70
34807;BMP180;18310;55.586;12.286;2023-02-28T17:05:24;103043.00;;;15.60
34807;BMP180;18310;55.586;12.286;2023-02-28T17:08:30;103051.00;;;15.60
34807;BMP180;18310;55.586;12.286;2023-02-28T17:11:50;103050.00;;;15.50
34807;BMP180;18310;55.586;12.286;2023-02-28T17:14:57;103056.00;;;15.40
34807;BMP180;18310;55.586;12.286;2023-02-28T17:18:02;103051.00;;;15.40
34807;BMP180;18310;55.586;12.286;2023-02-28T17:21:14;103060.00;;;15.30
34807;BMP180;18310;55.586;12.286;2023-02-28T17:24:18;103068.00;;;15.30
34807;BMP180;18310;55.586;12.286;2023-02-28T17:27:34;103066.00;;;15.20
34807;BMP180;18310;55.586;12.286;2023-02-28T17:30:39;103065.00;;;15.20
34807;BMP180;18310;55.586;12.286;2023-02-28T17:33:55;103066.00;;;15.20
34807;BMP180;18310;55.586;12.286;2023-02-28T17:36:59;103067.00;;;15.10
34807;BMP180;18310;55.586;12.286;2023-02-28T17:40:13;103064.00;;;15.00
34807;BMP180;18310;55.586;12.286;2023-02-28T17:43:17;103063.00;;;14.90
34807;BMP180;18310;55.586;12.286;2023-02-28T17:46:25;103061.00;;;14.90
34807;BMP180;18310;55.586;12.286;2023-02-28T17:49:31;103058.00;;;14.80
34807;BMP180;18310;55.586;12.286;2023-02-28T17:52:35;103062.00;;;14.70
34807;BMP180;18310;55.586;12.286;2023-02-28T17:55:39;103055.00;;;14.60